Terminal Aerodrome Forecast
Issued by NWS Pocatello, ID

Home | Current Version | Previous Version | Text Only | Print | Product List | Glossary On
Versions: 1 2 3 4 5 6 7 8 9 10 11 12 13 14
000
FTUS45 KPIH 250520
TAFPIH
TAF
KPIH 250520Z 2506/2606 22014KT P6SM SCT050 OVC100
     FM250900 22008KT P6SM OVC100
     FM251800 23009KT P6SM -SHRA SCT020 BKN040 OVC100
     FM260200 24012KT 5SM -RA BR SCT010 OVC020=

USA.gov is the U.S. government's official web portal to all federal, state and local government web resources and services.